Time;durP1;ratioP1;P1;durP2;ratioP2;P2;SDS_P1;SDS_P2;PMS_P1;PMS_P2;Temp;Humidity;BMP_temperature;BMP_pressure;BME280_temperature;BME280_humidity;BME280_pressure;Samples;Min_cycle;Max_cycle;Signal;HPM_P1;HPM_P2
2023/08/28 00:02:26;;;;;;;12.30;11.40;;;14.90;99.90;;;;;;5009213;28;20208;-79
2023/08/28 00:04:53;;;;;;;11.93;11.23;;;14.90;99.90;;;;;;4993047;28;20225;-79
2023/08/28 00:07:21;;;;;;;11.70;11.00;;;14.90;99.90;;;;;;4994166;28;20215;-79
2023/08/28 00:09:48;;;;;;;11.80;11.10;;;14.90;99.90;;;;;;4985170;28;20614;-79
2023/08/28 00:12:15;;;;;;;11.67;10.87;;;14.90;99.90;;;;;;4994297;28;20212;-79
2023/08/28 00:14:42;;;;;;;11.77;11.07;;;14.90;99.90;;;;;;4986883;28;20276;-80
2023/08/28 00:17:09;;;;;;;11.77;11.07;;;14.90;99.90;;;;;;4994228;28;20196;-79
2023/08/28 00:19:36;;;;;;;12.03;11.33;;;14.80;99.90;;;;;;5008915;28;20638;-79
2023/08/28 00:22:02;;;;;;;12.60;11.90;;;14.90;99.90;;;;;;4992793;28;20641;-79
2023/08/28 00:24:31;;;;;;;12.07;11.37;;;14.80;99.90;;;;;;5001284;28;20209;-79
2023/08/28 00:26:57;;;;;;;12.20;11.40;;;14.80;99.90;;;;;;4996923;28;20255;-79
2023/08/28 00:29:24;;;;;;;12.10;11.40;;;14.80;99.90;;;;;;4993923;28;20203;-79
2023/08/28 00:31:51;;;;;;;12.50;11.60;;;14.70;99.90;;;;;;4990017;28;20214;-79
2023/08/28 00:34:19;;;;;;;12.37;11.67;;;14.70;99.90;;;;;;5009066;28;20709;-79
2023/08/28 00:36:46;;;;;;;12.10;11.30;;;14.80;99.90;;;;;;5009066;28;20205;-79
2023/08/28 00:39:13;;;;;;;12.90;12.10;;;14.80;99.90;;;;;;5011228;28;20214;-79
2023/08/28 00:41:41;;;;;;;12.30;11.60;;;14.80;99.90;;;;;;4993351;28;20216;-79
2023/08/28 00:44:08;;;;;;;12.40;11.60;;;14.80;99.90;;;;;;5010850;28;20671;-80
2023/08/28 00:46:34;;;;;;;12.60;11.80;;;14.80;99.90;;;;;;5012557;28;20208;-79
2023/08/28 00:49:01;;;;;;;13.17;12.20;;;14.80;99.90;;;;;;4997179;28;20197;-78
2023/08/28 00:51:29;;;;;;;12.20;11.50;;;14.80;99.90;;;;;;5013090;28;20239;-79
2023/08/28 00:53:56;;;;;;;12.90;12.00;;;14.80;99.90;;;;;;5008701;28;20738;-79
2023/08/28 00:56:23;;;;;;;13.97;13.17;;;14.80;99.90;;;;;;5009048;28;20214;-79
2023/08/28 00:58:51;;;;;;;12.60;11.80;;;14.80;99.90;;;;;;4995915;28;20216;-79
2023/08/28 01:01:18;;;;;;;12.13;11.33;;;14.80;99.90;;;;;;5012505;28;20637;-79
2023/08/28 01:03:45;;;;;;;13.10;12.30;;;14.80;99.90;;;;;;4995575;28;20199;-79
2023/08/28 01:06:19;;;;;;;12.17;11.47;;;14.80;99.90;;;;;;5012391;28;20661;-79
2023/08/28 01:08:55;;;;;;;12.37;11.67;;;14.80;99.90;;;;;;5012704;28;20297;-79
2023/08/28 01:11:31;;;;;;;13.10;12.30;;;14.80;99.90;;;;;;4998116;28;20321;-79
2023/08/28 01:14:05;;;;;;;12.50;11.80;;;14.80;99.90;;;;;;4996255;28;20219;-79
2023/08/28 01:16:35;;;;;;;12.43;11.63;;;14.80;99.90;;;;;;4996013;28;20206;-79
2023/08/28 01:19:04;;;;;;;11.90;11.20;;;14.80;99.90;;;;;;4996353;28;20221;-80
2023/08/28 01:21:32;;;;;;;11.97;11.17;;;14.80;99.90;;;;;;4995973;28;20244;-79
2023/08/28 01:24:03;;;;;;;11.70;11.00;;;14.80;99.90;;;;;;4995768;28;20581;-79
2023/08/28 01:26:32;;;;;;;12.13;11.27;;;14.80;99.90;;;;;;5000871;28;20260;-79
2023/08/28 01:28:59;;;;;;;12.00;11.30;;;14.80;99.90;;;;;;4996946;28;20200;-80
2023/08/28 01:31:26;;;;;;;11.53;10.90;;;14.80;99.90;;;;;;4996673;28;20232;-79
2023/08/28 01:33:53;;;;;;;11.63;10.93;;;14.80;99.90;;;;;;5011690;28;20582;-79
2023/08/28 01:36:29;;;;;;;11.87;11.07;;;14.80;99.90;;;;;;5012126;28;20203;-79
2023/08/28 01:39:00;;;;;;;11.43;10.73;;;14.80;99.90;;;;;;5011925;28;20267;-79
2023/08/28 01:41:28;;;;;;;11.50;10.80;;;14.80;99.90;;;;;;4995885;28;20223;-79
2023/08/28 01:44:00;;;;;;;11.53;10.83;;;14.70;99.90;;;;;;4992398;28;20205;-79
2023/08/28 01:46:31;;;;;;;11.80;11.10;;;14.70;99.90;;;;;;4991831;28;20278;-79
2023/08/28 01:48:58;;;;;;;11.47;10.77;;;14.70;99.90;;;;;;5012147;28;20200;-79
2023/08/28 01:51:25;;;;;;;11.60;10.90;;;14.70;99.90;;;;;;5011263;28;20226;-80
2023/08/28 01:53:53;;;;;;;11.67;10.97;;;14.70;99.90;;;;;;4996229;28;20637;-79
2023/08/28 01:56:21;;;;;;;12.40;11.40;;;14.70;99.90;;;;;;4995544;28;20204;-79
2023/08/28 01:58:50;;;;;;;12.07;11.37;;;14.70;99.90;;;;;;5012351;28;20225;-79
2023/08/28 02:01:19;;;;;;;11.60;10.90;;;14.60;99.90;;;;;;4995001;28;20243;-79
2023/08/28 02:03:46;;;;;;;11.30;10.60;;;14.60;99.90;;;;;;5011606;28;20679;-79
2023/08/28 02:06:13;;;;;;;11.77;11.07;;;14.60;99.90;;;;;;5012176;28;20236;-79
2023/08/28 02:08:40;;;;;;;11.57;10.87;;;14.60;99.90;;;;;;4995486;28;20193;-79
2023/08/28 02:11:07;;;;;;;12.17;11.47;;;14.60;99.90;;;;;;4995358;28;20578;-79
2023/08/28 02:13:34;;;;;;;12.57;11.87;;;14.60;99.90;;;;;;4994894;28;20672;-79
2023/08/28 02:16:03;;;;;;;11.90;11.20;;;14.60;99.90;;;;;;5011314;28;20191;-79
2023/08/28 02:18:31;;;;;;;11.90;11.10;;;14.50;99.90;;;;;;4995292;28;20192;-79
2023/08/28 02:20:58;;;;;;;12.17;11.47;;;14.50;99.90;;;;;;5011270;28;20231;-79
2023/08/28 02:23:26;;;;;;;11.80;11.00;;;14.50;99.90;;;;;;4994956;28;20671;-79
2023/08/28 02:25:53;;;;;;;12.00;11.30;;;14.50;99.90;;;;;;4994041;28;20648;-79
2023/08/28 02:28:20;;;;;;;13.40;12.60;;;14.50;99.90;;;;;;4995206;28;20214;-79
2023/08/28 02:30:48;;;;;;;11.90;11.20;;;14.50;99.90;;;;;;5011576;28;20229;-79
2023/08/28 02:33:15;;;;;;;12.30;11.50;;;14.40;99.90;;;;;;4996183;28;20197;-78
2023/08/28 02:35:45;;;;;;;12.10;11.40;;;14.40;99.90;;;;;;4994940;28;20213;-79
2023/08/28 02:38:12;;;;;;;12.03;11.23;;;14.40;99.90;;;;;;4994365;28;20206;-79
2023/08/28 02:40:40;;;;;;;11.67;10.97;;;14.40;99.90;;;;;;4994111;28;20265;-79
2023/08/28 02:43:09;;;;;;;12.13;11.43;;;14.40;99.90;;;;;;4994165;28;20201;-79
2023/08/28 02:45:36;;;;;;;12.20;11.40;;;14.40;99.90;;;;;;5009523;28;20203;-79
2023/08/28 02:48:03;;;;;;;12.57;11.77;;;14.40;99.90;;;;;;4994697;28;20266;-79
2023/08/28 02:50:31;;;;;;;12.30;11.60;;;14.30;99.90;;;;;;4995429;28;20728;-76
2023/08/28 02:52:59;;;;;;;11.77;11.07;;;14.30;99.90;;;;;;4989124;28;20427;-80
2023/08/28 02:55:26;;;;;;;12.00;11.30;;;14.30;99.90;;;;;;4987201;28;20221;-81
2023/08/28 02:57:58;;;;;;;11.70;10.90;;;14.30;99.90;;;;;;4993710;28;20576;-80
2023/08/28 03:00:24;;;;;;;12.90;12.10;;;14.30;99.90;;;;;;4999875;28;20226;-77
2023/08/28 03:02:51;;;;;;;12.10;11.30;;;14.30;99.90;;;;;;5005091;28;20210;-77
2023/08/28 03:05:19;;;;;;;12.47;11.77;;;14.30;99.90;;;;;;5011184;28;20671;-78
2023/08/28 03:07:46;;;;;;;13.10;12.40;;;14.30;99.90;;;;;;5001102;28;20203;-81
2023/08/28 03:10:14;;;;;;;12.27;11.57;;;14.30;99.90;;;;;;4995019;28;20217;-80
2023/08/28 03:12:41;;;;;;;12.30;11.60;;;14.30;99.90;;;;;;5007306;28;20207;-80
2023/08/28 03:15:08;;;;;;;13.03;12.27;;;14.30;99.90;;;;;;4985051;28;20209;-78
2023/08/28 03:17:38;;;;;;;12.67;11.97;;;14.30;99.90;;;;;;4994350;28;20220;-80
2023/08/28 03:20:09;;;;;;;13.20;12.40;;;14.30;99.90;;;;;;4997006;28;20226;-77
2023/08/28 03:22:36;;;;;;;13.17;12.37;;;14.30;99.90;;;;;;5007530;28;20587;-77
2023/08/28 03:25:04;;;;;;;13.00;12.20;;;14.30;99.90;;;;;;4991181;28;20210;-76
2023/08/28 03:27:33;;;;;;;13.80;13.00;;;14.30;99.90;;;;;;4992736;28;20697;-77
2023/08/28 03:29:59;;;;;;;13.00;12.30;;;14.30;99.90;;;;;;4990866;28;20219;-77
2023/08/28 03:32:26;;;;;;;13.17;12.37;;;14.30;99.90;;;;;;4989909;28;20197;-77
2023/08/28 03:34:54;;;;;;;13.03;12.23;;;14.20;99.90;;;;;;4991617;28;20195;-77
2023/08/28 03:37:21;;;;;;;13.40;12.60;;;14.20;99.90;;;;;;4989975;28;20333;-76
2023/08/28 03:39:48;;;;;;;13.13;12.43;;;14.20;99.90;;;;;;4990485;28;20217;-76
2023/08/28 03:42:15;;;;;;;12.97;12.17;;;14.20;99.90;;;;;;4990785;28;20233;-76
2023/08/28 03:44:43;;;;;;;12.90;12.20;;;14.20;99.90;;;;;;4992254;28;20194;-76
2023/08/28 03:47:10;;;;;;;14.00;13.20;;;14.20;99.90;;;;;;4989530;28;20194;-77
2023/08/28 03:49:36;;;;;;;13.37;12.57;;;14.20;99.90;;;;;;5007460;28;20202;-76
2023/08/28 03:52:04;;;;;;;13.07;12.27;;;14.20;99.90;;;;;;5007345;28;20210;-76
2023/08/28 03:54:31;;;;;;;13.37;12.67;;;14.20;99.90;;;;;;5006600;28;20664;-76
2023/08/28 03:56:58;;;;;;;13.60;12.80;;;14.20;99.90;;;;;;4991694;28;20205;-76
2023/08/28 03:59:25;;;;;;;13.67;12.77;;;14.20;99.90;;;;;;5006737;28;20705;-76
2023/08/28 04:01:53;;;;;;;14.20;13.30;;;14.20;99.90;;;;;;5007204;28;20233;-76
2023/08/28 04:04:21;;;;;;;13.37;12.67;;;14.10;99.90;;;;;;4991130;28;20233;-77
2023/08/28 04:06:48;;;;;;;14.00;13.10;;;14.20;99.90;;;;;;5007892;28;20649;-77
2023/08/28 04:09:15;;;;;;;14.17;13.37;;;14.20;99.90;;;;;;4991784;28;20684;-77
2023/08/28 04:11:43;;;;;;;13.20;12.50;;;14.20;99.90;;;;;;4990673;28;20219;-77
2023/08/28 04:14:10;;;;;;;13.60;12.80;;;14.20;99.90;;;;;;4991587;28;20206;-77
2023/08/28 04:16:36;;;;;;;14.03;13.23;;;14.20;99.90;;;;;;4991157;28;20199;-77
2023/08/28 04:19:05;;;;;;;14.53;13.63;;;14.20;99.90;;;;;;4990814;28;20201;-77
2023/08/28 04:21:32;;;;;;;14.33;13.53;;;14.20;99.90;;;;;;5004073;28;20312;-77
2023/08/28 04:23:59;;;;;;;13.93;13.13;;;14.10;99.90;;;;;;5007347;28;20218;-77
2023/08/28 04:26:25;;;;;;;14.43;13.63;;;14.10;99.90;;;;;;4991019;28;20732;-77
2023/08/28 04:28:52;;;;;;;14.33;13.57;;;14.10;99.90;;;;;;4990930;28;20213;-77
2023/08/28 04:31:19;;;;;;;14.87;13.97;;;14.10;99.90;;;;;;4990494;28;20245;-77
2023/08/28 04:33:45;;;;;;;14.10;13.40;;;14.10;99.90;;;;;;4990634;28;20577;-77
2023/08/28 04:36:14;;;;;;;14.57;13.77;;;14.10;99.90;;;;;;4990845;28;20209;-77
2023/08/28 04:38:40;;;;;;;14.70;13.83;;;14.10;99.90;;;;;;5006902;28;20221;-76
2023/08/28 04:41:07;;;;;;;15.10;14.20;;;14.10;99.90;;;;;;4990205;28;20229;-76
2023/08/28 04:43:34;;;;;;;15.67;14.77;;;14.10;99.90;;;;;;5007021;28;20577;-76
2023/08/28 04:46:01;;;;;;;15.70;14.80;;;14.10;99.90;;;;;;4991574;28;20264;-76
2023/08/28 04:48:32;;;;;;;15.83;14.93;;;14.20;99.90;;;;;;5007170;28;20709;-77
2023/08/28 04:50:58;;;;;;;15.10;14.30;;;14.20;99.90;;;;;;4990450;28;20221;-77
2023/08/28 04:53:27;;;;;;;15.40;14.50;;;14.20;99.90;;;;;;4991586;28;20282;-76
2023/08/28 04:55:55;;;;;;;16.23;15.23;;;14.20;99.90;;;;;;4990665;28;20198;-77
2023/08/28 04:58:21;;;;;;;15.97;15.07;;;14.20;99.90;;;;;;5006835;28;20201;-77
2023/08/28 05:00:48;;;;;;;15.80;14.90;;;14.20;99.90;;;;;;5006244;28;20247;-77
2023/08/28 05:03:15;;;;;;;16.20;15.30;;;14.20;99.90;;;;;;4990169;28;20347;-77
2023/08/28 05:05:42;;;;;;;16.57;15.67;;;14.20;99.90;;;;;;4991886;28;20208;-77
2023/08/28 05:08:09;;;;;;;17.43;16.43;;;14.30;99.90;;;;;;4990021;28;20615;-77
2023/08/28 05:10:37;;;;;;;17.43;16.43;;;14.20;99.90;;;;;;4986409;28;20217;-77
2023/08/28 05:13:05;;;;;;;16.97;15.97;;;14.20;99.90;;;;;;5006893;28;20198;-77
2023/08/28 05:15:32;;;;;;;17.53;16.33;;;14.20;99.90;;;;;;4990304;28;20240;-77
2023/08/28 05:17:58;;;;;;;17.67;16.60;;;14.20;99.90;;;;;;5006436;28;20209;-76
2023/08/28 05:20:25;;;;;;;17.60;16.60;;;14.20;99.90;;;;;;4991701;28;20233;-81
2023/08/28 05:22:52;;;;;;;16.40;15.50;;;14.20;99.90;;;;;;4992077;28;20688;-78
2023/08/28 05:25:19;;;;;;;16.37;15.37;;;14.20;99.90;;;;;;4995780;28;20205;-79
2023/08/28 05:27:47;;;;;;;15.70;14.70;;;14.30;99.90;;;;;;4997382;28;20211;-77
2023/08/28 05:30:14;;;;;;;15.40;14.50;;;14.30;99.90;;;;;;4994615;28;20217;-77
2023/08/28 05:32:41;;;;;;;15.17;14.37;;;14.30;99.90;;;;;;4996594;28;20198;-78
2023/08/28 05:35:09;;;;;;;14.60;13.80;;;14.30;99.90;;;;;;4997401;28;20205;-76
2023/08/28 05:37:36;;;;;;;15.17;14.27;;;14.30;99.90;;;;;;5010924;28;20332;-77
2023/08/28 05:40:04;;;;;;;14.57;13.67;;;14.40;99.90;;;;;;4994521;28;20258;-77
2023/08/28 05:42:31;;;;;;;14.37;13.57;;;14.40;99.90;;;;;;5011502;28;20297;-77
2023/08/28 05:44:59;;;;;;;15.40;14.40;;;14.40;99.90;;;;;;4994371;28;20273;-77
2023/08/28 05:47:26;;;;;;;14.70;13.90;;;14.40;99.90;;;;;;4995102;28;20219;-77
2023/08/28 05:49:53;;;;;;;15.10;14.30;;;14.40;99.90;;;;;;5011198;28;20253;-76
2023/08/28 05:52:20;;;;;;;15.00;14.10;;;14.40;99.90;;;;;;4994277;28;20209;-77
2023/08/28 05:54:47;;;;;;;15.13;14.33;;;14.40;99.90;;;;;;4993492;28;20656;-77
2023/08/28 05:57:14;;;;;;;15.50;14.60;;;14.40;99.90;;;;;;5009803;28;20234;-77
2023/08/28 05:59:41;;;;;;;14.43;13.63;;;14.50;99.90;;;;;;4993296;28;20190;-76
2023/08/28 06:02:09;;;;;;;14.33;13.43;;;14.50;99.90;;;;;;4995150;28;20209;-77
2023/08/28 06:04:36;;;;;;;14.37;13.47;;;14.60;99.90;;;;;;5009420;28;20202;-76
2023/08/28 06:07:04;;;;;;;14.07;13.27;;;14.60;99.90;;;;;;4993136;28;20195;-77
2023/08/28 06:09:31;;;;;;;14.57;13.67;;;14.60;99.90;;;;;;5009363;28;20290;-77
2023/08/28 06:11:58;;;;;;;15.10;14.20;;;14.60;99.90;;;;;;4992851;28;20215;-76
2023/08/28 06:14:25;;;;;;;14.27;13.47;;;14.70;99.90;;;;;;4992641;28;20654;-77
2023/08/28 06:16:51;;;;;;;14.57;13.67;;;14.70;99.90;;;;;;4993210;28;20195;-77
2023/08/28 06:19:20;;;;;;;14.77;13.87;;;14.80;99.90;;;;;;4992936;28;20199;-77
2023/08/28 06:21:47;;;;;;;15.00;14.10;;;14.80;99.90;;;;;;4994203;28;20218;-76
2023/08/28 06:24:15;;;;;;;14.90;13.90;;;14.90;99.90;;;;;;4991244;28;20308;-77
2023/08/28 06:26:43;;;;;;;14.73;13.87;;;14.90;99.90;;;;;;4994487;28;20586;-78
2023/08/28 06:29:10;;;;;;;15.17;14.27;;;14.90;99.90;;;;;;4994377;28;20210;-78
2023/08/28 06:31:37;;;;;;;15.47;14.33;;;14.90;99.90;;;;;;4994466;28;20707;-82
2023/08/28 06:34:03;;;;;;;15.10;14.20;;;14.90;99.90;;;;;;4996116;28;20207;-78
2023/08/28 06:36:31;;;;;;;15.33;14.33;;;15.00;99.90;;;;;;5012602;28;20194;-78
2023/08/28 06:38:58;;;;;;;15.83;14.83;;;15.00;99.90;;;;;;4998207;28;20223;-81
2023/08/28 06:41:25;;;;;;;15.70;14.80;;;15.00;99.90;;;;;;4990147;28;20220;-78
2023/08/28 06:43:51;;;;;;;15.87;14.87;;;15.00;99.90;;;;;;4995637;28;20678;-82
2023/08/28 06:46:18;;;;;;;15.53;14.60;;;14.90;99.90;;;;;;4999151;28;20303;-82
2023/08/28 06:48:45;;;;;;;15.50;14.50;;;14.90;99.90;;;;;;4999043;28;20226;-78
2023/08/28 06:51:12;;;;;;;15.47;14.43;;;14.90;99.90;;;;;;4999468;28;20272;-79
2023/08/28 06:53:40;;;;;;;15.07;14.13;;;14.90;99.90;;;;;;4996797;28;20204;-78
2023/08/28 06:56:07;;;;;;;14.90;14.00;;;14.90;99.90;;;;;;4998629;28;20204;-79
2023/08/28 06:58:34;;;;;;;15.70;14.60;;;14.80;99.90;;;;;;4998262;28;20208;-78
2023/08/28 07:01:01;;;;;;;14.50;13.60;;;14.80;99.90;;;;;;4995397;28;20232;-78
2023/08/28 07:03:27;;;;;;;15.03;14.03;;;14.80;99.90;;;;;;4993668;28;20226;-78
2023/08/28 07:05:54;;;;;;;15.10;14.10;;;14.70;99.90;;;;;;4995971;28;20263;-78
2023/08/28 07:08:21;;;;;;;15.00;14.10;;;14.70;99.90;;;;;;5011727;28;20546;-81
2023/08/28 07:10:49;;;;;;;14.40;13.50;;;14.70;99.90;;;;;;4996262;28;20217;-79
2023/08/28 07:13:16;;;;;;;14.73;13.80;;;14.80;99.90;;;;;;5002102;28;20583;-79
2023/08/28 07:16:00;;;;;;;15.45;14.55;;;14.70;99.90;;;;;;4990330;28;20785;-80
2023/08/28 07:18:27;;;;;;;14.53;13.60;;;14.80;99.90;;;;;;5010245;28;20260;-79
2023/08/28 07:20:54;;;;;;;14.13;13.33;;;14.80;99.90;;;;;;4996413;28;20227;-78
2023/08/28 07:23:22;;;;;;;15.70;14.70;;;14.80;99.90;;;;;;4992588;28;20211;-78
2023/08/28 07:25:50;;;;;;;14.40;13.50;;;14.80;99.90;;;;;;4994911;28;20196;-78
2023/08/28 07:28:17;;;;;;;14.40;13.60;;;14.80;99.90;;;;;;4996037;28;20558;-79
2023/08/28 07:30:44;;;;;;;14.80;13.80;;;14.80;99.90;;;;;;4994955;28;20220;-78
2023/08/28 07:33:11;;;;;;;16.07;15.07;;;14.90;99.90;;;;;;4996151;28;20198;-77
2023/08/28 07:35:38;;;;;;;15.80;14.80;;;14.90;99.90;;;;;;4994504;28;20198;-78
2023/08/28 07:38:06;;;;;;;14.97;14.07;;;15.00;99.90;;;;;;4996100;28;20321;-78
2023/08/28 07:40:33;;;;;;;15.63;14.73;;;15.00;99.90;;;;;;5010883;28;20280;-78
2023/08/28 07:43:01;;;;;;;15.07;14.07;;;15.10;99.90;;;;;;4993736;28;20199;-78
2023/08/28 07:45:29;;;;;;;15.33;14.37;;;15.10;99.90;;;;;;4994082;28;20202;-78
2023/08/28 07:47:56;;;;;;;15.07;13.97;;;15.10;99.90;;;;;;4994566;28;20202;-78
2023/08/28 07:50:23;;;;;;;16.10;15.00;;;15.20;99.90;;;;;;4994678;28;20436;-78
2023/08/28 07:52:50;;;;;;;15.45;14.55;;;15.10;99.90;;;;;;5011238;28;20440;-78
2023/08/28 07:55:17;;;;;;;14.13;13.27;;;15.10;99.90;;;;;;4995707;28;20438;-78
2023/08/28 07:57:44;;;;;;;14.43;13.53;;;15.10;99.90;;;;;;5011622;28;20450;-78
2023/08/28 08:00:13;;;;;;;15.53;14.53;;;15.10;99.90;;;;;;4995782;28;20331;-78
2023/08/28 08:02:41;;;;;;;15.57;14.47;;;15.20;99.90;;;;;;4996026;28;20326;-79
2023/08/28 08:05:10;;;;;;;15.23;14.23;;;15.20;99.90;;;;;;4995768;28;20266;-78
2023/08/28 08:07:39;;;;;;;15.70;14.60;;;15.20;99.90;;;;;;4994344;28;20206;-78
2023/08/28 08:10:08;;;;;;;15.60;14.20;;;15.30;99.90;;;;;;5009150;28;20725;-78
2023/08/28 08:12:35;;;;;;;15.97;14.33;;;15.40;99.90;;;;;;4994559;28;20191;-78
2023/08/28 08:15:02;;;;;;;15.30;13.87;;;15.40;99.90;;;;;;4994470;28;20720;-78
2023/08/28 08:17:30;;;;;;;13.63;12.73;;;15.40;99.90;;;;;;4994814;28;20310;-78
2023/08/28 08:19:57;;;;;;;14.93;13.80;;;15.30;99.90;;;;;;5011222;28;20270;-78
2023/08/28 08:22:24;;;;;;;15.17;14.17;;;15.40;99.90;;;;;;4994325;28;20291;-78
2023/08/28 08:24:51;;;;;;;15.20;14.10;;;15.40;99.90;;;;;;4996263;28;20222;-79
2023/08/28 08:27:18;;;;;;;14.47;13.37;;;15.30;99.90;;;;;;4996194;28;20201;-77
2023/08/28 08:29:45;;;;;;;15.07;14.03;;;15.40;99.90;;;;;;4996547;28;20199;-78
2023/08/28 08:32:12;;;;;;;14.47;13.47;;;15.40;99.90;;;;;;4995256;28;20244;-78
2023/08/28 08:34:40;;;;;;;15.57;14.57;;;15.40;99.90;;;;;;4996235;28;20255;-79
2023/08/28 08:37:07;;;;;;;15.80;14.60;;;15.40;99.90;;;;;;4995786;28;20197;-78
2023/08/28 08:39:34;;;;;;;14.03;13.13;;;15.40;99.90;;;;;;4995368;28;20221;-78
2023/08/28 08:42:01;;;;;;;16.13;15.10;;;15.40;99.90;;;;;;4994638;28;20224;-78
2023/08/28 08:44:28;;;;;;;15.23;14.03;;;15.40;99.90;;;;;;4994798;28;20652;-78
2023/08/28 08:46:56;;;;;;;14.87;13.83;;;15.30;99.90;;;;;;4994571;28;20691;-78
2023/08/28 08:49:27;;;;;;;14.23;13.27;;;15.40;99.90;;;;;;5011365;28;20238;-79
2023/08/28 08:51:58;;;;;;;14.00;13.07;;;15.50;99.90;;;;;;5011308;28;20227;-78
2023/08/28 08:54:30;;;;;;;14.07;13.07;;;15.70;99.90;;;;;;4996245;28;20199;-79
2023/08/28 08:57:01;;;;;;;14.37;13.37;;;15.80;99.90;;;;;;4990020;28;20205;-79
2023/08/28 08:59:28;;;;;;;14.17;13.17;;;16.00;99.90;;;;;;4996955;28;20228;-78
2023/08/28 09:01:55;;;;;;;14.10;13.00;;;16.00;99.90;;;;;;4997452;28;20278;-79
2023/08/28 09:04:22;;;;;;;13.37;12.47;;;16.00;99.90;;;;;;4996327;28;20212;-78
2023/08/28 09:06:50;;;;;;;12.77;11.97;;;16.00;99.90;;;;;;4996849;28;20206;-78
2023/08/28 09:09:18;;;;;;;12.07;11.20;;;16.00;99.90;;;;;;4995392;28;20232;-78
2023/08/28 09:11:46;;;;;;;13.13;12.30;;;16.10;99.90;;;;;;4996812;28;20231;-78
2023/08/28 09:14:13;;;;;;;12.73;11.73;;;16.10;99.90;;;;;;5012390;28;20213;-78
2023/08/28 09:16:40;;;;;;;13.23;12.33;;;16.10;99.90;;;;;;4997715;28;20196;-78
2023/08/28 09:19:08;;;;;;;13.10;12.30;;;16.10;99.90;;;;;;4996375;28;20746;-78
2023/08/28 09:21:36;;;;;;;11.83;11.13;;;16.10;99.90;;;;;;4995107;28;20358;-78
2023/08/28 09:24:07;;;;;;;12.70;11.70;;;16.00;99.90;;;;;;5003653;28;20208;-78
2023/08/28 09:26:37;;;;;;;12.90;11.83;;;16.20;99.90;;;;;;4997450;28;20621;-78
2023/08/28 09:29:06;;;;;;;12.70;11.80;;;16.20;99.90;;;;;;5012902;28;20201;-78
2023/08/28 09:31:34;;;;;;;12.50;11.70;;;16.30;99.90;;;;;;4997710;28;20221;-78
2023/08/28 09:34:01;;;;;;;12.30;11.50;;;16.50;99.90;;;;;;4997467;28;20204;-78
2023/08/28 09:36:29;;;;;;;12.37;11.57;;;16.60;99.90;;;;;;4997611;28;20204;-79
2023/08/28 09:38:59;;;;;;;11.80;11.10;;;16.80;99.90;;;;;;4997085;28;20703;-75
2023/08/28 09:41:40;;;;;;;12.30;11.50;;;17.20;99.90;;;;;;4997512;28;20253;-78
2023/08/28 09:44:07;;;;;;;11.97;11.27;;;17.80;99.90;;;;;;4997125;28;20209;-78
2023/08/28 09:46:36;;;;;;;5.30;4.37;;;18.10;99.90;;;;;;4999186;28;20621;-81
2023/08/28 09:49:03;;;;;;;14.40;13.27;;;18.30;99.90;;;;;;4997618;28;20784;-81
2023/08/28 09:51:40;;;;;;;4.47;4.07;;;18.50;99.90;;;;;;5009898;28;20215;-81
2023/08/28 09:54:07;;;;;;;7.73;7.17;;;18.80;99.90;;;;;;4988923;28;20238;-81
2023/08/28 09:56:38;;;;;;;4.10;3.80;;;18.80;99.90;;;;;;4993560;28;20663;-82
2023/08/28 09:59:06;;;;;;;13.03;12.23;;;18.60;99.90;;;;;;4997855;28;20205;-79
2023/08/28 10:01:35;;;;;;;12.80;12.00;;;18.50;99.90;;;;;;4998828;28;20259;-79
2023/08/28 10:04:05;;;;;;;11.13;10.43;;;18.30;99.90;;;;;;4999992;28;20204;-79
2023/08/28 10:06:34;;;;;;;4.43;4.10;;;18.10;99.90;;;;;;5014724;28;20204;-79
2023/08/28 10:09:04;;;;;;;4.67;3.63;;;18.20;99.90;;;;;;4997935;28;20624;-79
2023/08/28 10:11:36;;;;;;;4.20;3.80;;;18.10;99.90;;;;;;4999041;28;20240;-79
2023/08/28 10:14:05;;;;;;;3.67;3.37;;;18.20;99.90;;;;;;4998140;28;20263;-79
2023/08/28 10:16:36;;;;;;;8.60;8.10;;;18.20;99.90;;;;;;4999403;28;20675;-79
2023/08/28 10:19:10;;;;;;;11.23;10.43;;;18.10;99.90;;;;;;4998003;28;20200;-79
2023/08/28 10:21:38;;;;;;;5.70;5.20;;;18.10;99.90;;;;;;4999558;28;20254;-79
2023/08/28 10:24:06;;;;;;;3.80;3.40;;;18.00;99.90;;;;;;5004237;28;20212;-79
2023/08/28 10:26:34;;;;;;;8.70;8.03;;;17.80;99.90;;;;;;5015236;28;20298;-79
2023/08/28 10:29:04;;;;;;;11.50;10.80;;;17.60;99.90;;;;;;5000181;28;20204;-79
2023/08/28 10:31:32;;;;;;;10.77;9.97;;;17.70;99.90;;;;;;5014878;28;20219;-79
2023/08/28 10:34:00;;;;;;;11.50;10.80;;;17.60;99.90;;;;;;4997443;28;20261;-78
2023/08/28 10:36:29;;;;;;;11.67;10.97;;;17.50;99.90;;;;;;4997590;28;20299;-79
2023/08/28 10:38:57;;;;;;;11.00;10.27;;;17.40;99.90;;;;;;5011246;28;20201;-79
2023/08/28 10:41:25;;;;;;;11.70;10.90;;;17.40;99.90;;;;;;4998924;28;20225;-79
2023/08/28 10:43:52;;;;;;;11.53;10.60;;;17.10;99.90;;;;;;4998681;28;20195;-79
2023/08/28 10:46:22;;;;;;;11.47;10.60;;;17.00;99.90;;;;;;5014836;28;20255;-78
2023/08/28 10:48:56;;;;;;;10.70;9.93;;;17.00;99.90;;;;;;5000299;28;20220;-79
2023/08/28 10:51:30;;;;;;;10.50;9.83;;;17.20;99.90;;;;;;4998246;28;20258;-78
2023/08/28 10:54:01;;;;;;;10.77;10.07;;;17.40;99.90;;;;;;5008224;28;20214;-79
2023/08/28 10:56:31;;;;;;;11.70;10.87;;;17.50;99.90;;;;;;4998689;28;20512;-79
2023/08/28 10:59:26;;;;;;;11.13;10.43;;;17.40;99.90;;;;;;4998779;28;20285;-78
2023/08/28 11:01:56;;;;;;;11.70;11.00;;;17.30;99.90;;;;;;4997329;28;20225;-79
2023/08/28 11:04:23;;;;;;;11.30;10.33;;;17.30;99.90;;;;;;4994986;28;20198;-79
2023/08/28 11:06:51;;;;;;;10.67;9.97;;;17.30;99.90;;;;;;5014047;28;20272;-78
2023/08/28 11:09:35;;;;;;;10.47;9.77;;;17.40;99.90;;;;;;4998191;28;20208;-78
2023/08/28 11:12:24;;;;;;;10.67;9.93;;;17.30;99.90;;;;;;4992566;28;20189;-78
2023/08/28 11:15:02;;;;;;;11.10;10.40;;;17.10;99.90;;;;;;4996705;28;20195;-78
2023/08/28 11:17:33;;;;;;;10.93;10.23;;;17.00;99.90;;;;;;5013252;28;20239;-78
2023/08/28 11:20:10;;;;;;;11.00;10.10;;;17.00;99.90;;;;;;4998625;28;20625;-79
2023/08/28 11:22:38;;;;;;;11.30;10.50;;;17.00;99.90;;;;;;4997324;28;20224;-78
2023/08/28 11:25:07;;;;;;;10.37;9.70;;;17.00;99.90;;;;;;4997888;28;20197;-78
2023/08/28 11:27:42;;;;;;;10.53;9.93;;;17.10;99.90;;;;;;4996447;28;20197;-78
2023/08/28 11:30:10;;;;;;;10.80;10.10;;;17.10;99.90;;;;;;5001365;28;20220;-79
2023/08/28 11:32:40;;;;;;;10.57;9.97;;;17.00;99.90;;;;;;5012641;28;20201;-78
2023/08/28 11:35:09;;;;;;;10.57;9.90;;;16.90;99.90;;;;;;5012172;28;20201;-78
2023/08/28 11:37:37;;;;;;;10.30;9.70;;;16.80;99.90;;;;;;4995493;28;20630;-79
2023/08/28 11:40:06;;;;;;;11.10;10.50;;;16.70;99.90;;;;;;4993110;28;20217;-78
2023/08/28 11:42:33;;;;;;;10.40;9.73;;;16.60;99.90;;;;;;4997601;28;20615;-78
2023/08/28 11:45:00;;;;;;;11.00;10.30;;;16.50;99.90;;;;;;5005381;28;20634;-79
2023/08/28 11:47:28;;;;;;;10.43;9.80;;;16.40;99.90;;;;;;5013016;28;20272;-78
2023/08/28 11:49:56;;;;;;;10.60;9.80;;;16.30;99.90;;;;;;5004352;28;20543;-79
2023/08/28 11:52:24;;;;;;;13.07;12.07;;;16.20;99.90;;;;;;4995165;28;20201;-78
2023/08/28 11:54:51;;;;;;;13.10;12.00;;;15.90;99.90;;;;;;5011631;28;20202;-78
2023/08/28 11:57:21;;;;;;;12.93;12.03;;;15.70;99.90;;;;;;4996157;28;20223;-78
2023/08/28 11:59:49;;;;;;;13.27;12.23;;;15.60;99.90;;;;;;4991329;28;20668;-78
2023/08/28 12:02:17;;;;;;;12.90;12.00;;;15.60;99.90;;;;;;4995412;28;20217;-78
2023/08/28 12:04:44;;;;;;;12.90;12.10;;;15.70;99.90;;;;;;5010487;28;20209;-78
2023/08/28 12:07:18;;;;;;;12.20;11.50;;;15.80;99.90;;;;;;4996571;28;20266;-78
2023/08/28 12:09:47;;;;;;;12.00;11.30;;;15.90;99.90;;;;;;4994766;28;20457;-78
2023/08/28 12:12:14;;;;;;;11.73;11.07;;;16.00;99.90;;;;;;4996146;28;20194;-78
2023/08/28 12:14:45;;;;;;;12.17;11.47;;;16.10;99.90;;;;;;4996089;28;20211;-85
2023/08/28 12:17:16;;;;;;;12.13;11.33;;;16.20;99.90;;;;;;4991398;28;20668;-82
2023/08/28 12:19:44;;;;;;;12.93;12.03;;;16.30;99.90;;;;;;4998986;28;20202;-82
2023/08/28 12:22:11;;;;;;;12.63;11.83;;;16.30;99.90;;;;;;4999998;28;20209;-82
2023/08/28 12:24:44;;;;;;;12.13;11.33;;;16.30;99.90;;;;;;5013886;28;20627;-82
2023/08/28 12:27:12;;;;;;;12.50;11.70;;;16.20;99.90;;;;;;4997312;28;20256;-82
2023/08/28 12:29:41;;;;;;;12.63;11.83;;;16.30;99.90;;;;;;4994414;28;20197;-82
2023/08/28 12:32:09;;;;;;;13.00;12.03;;;16.30;99.90;;;;;;4997266;28;20217;-81
2023/08/28 12:34:37;;;;;;;12.50;11.80;;;16.20;99.90;;;;;;4999436;28;20208;-82